Time;durP1;ratioP1;P1;durP2;ratioP2;P2;SDS_P1;SDS_P2;PMS_P1;PMS_P2;Temp;Humidity;BMP_temperature;BMP_pressure;BME280_temperature;BME280_humidity;BME280_pressure;Samples;Min_cycle;Max_cycle;Signal;HPM_P1;HPM_P2
2021/03/17 00:01:06;;;;;;;;;;;;;;;7.89;71.46;102240.75;5093270;28;19920;-69
2021/03/17 00:03:51;;;;;;;;;;;;;;;7.90;71.47;102236.91;5092771;28;19920;-65
2021/03/17 00:06:36;;;;;;;;;;;;;;;7.73;71.99;102242.50;5093192;28;19927;-61
2021/03/17 00:09:22;;;;;;;;;;;;;;;7.70;72.30;102239.44;5092558;28;19927;-65
2021/03/17 00:16:24;;;;;;;;;;;;;;;7.87;71.41;102251.97;5092776;28;19923;-58
2021/03/17 00:19:10;;;;;;;;;;;;;;;7.72;71.44;102264.69;5092930;28;19924;-63
2021/03/17 00:21:56;;;;;;;;;;;;;;;7.60;71.26;102274.97;5093173;28;19927;-62
2021/03/17 00:24:41;;;;;;;;;;;;;;;7.69;70.87;102287.13;5092823;28;20310;-63
2021/03/17 00:27:27;;;;;;;;;;;;;;;7.69;70.22;102271.50;5092583;28;19927;-63
2021/03/17 00:30:12;;;;;;;;;;;;;;;7.71;69.93;102279.47;5092408;28;19927;-60
2021/03/17 00:32:59;;;;;;;;;;;;;;;7.63;70.54;102266.22;5092814;28;20282;-63
2021/03/17 00:35:47;;;;;;;;;;;;;;;7.69;70.60;102270.66;5077582;28;19927;-64
2021/03/17 00:38:32;;;;;;;;;;;;;;;7.82;70.28;102253.81;5074667;28;19927;-61
2021/03/17 00:41:17;;;;;;;;;;;;;;;7.72;69.95;102256.47;5092778;28;19927;-66
2021/03/17 00:44:03;;;;;;;;;;;;;;;7.58;69.99;102260.69;5092093;28;20278;-67
2021/03/17 00:46:48;;;;;;;;;;;;;;;7.61;70.57;102262.91;5093247;28;19920;-67
2021/03/17 00:49:21;;;;;;;;;;;;;;;7.59;70.37;102273.28;5074625;28;19931;-64
2021/03/17 00:51:52;;;;;;;;;;;;;;;7.74;70.70;102266.06;5092971;28;19920;-62
2021/03/17 00:54:37;;;;;;;;;;;;;;;7.57;70.39;102268.06;5092558;28;19926;-67
2021/03/17 01:01:42;;;;;;;;;;;;;;;7.40;71.82;102278.28;5073691;28;20247;-70
2021/03/17 01:04:10;;;;;;;;;;;;;;;7.39;72.25;102257.41;5076177;28;20263;-61
2021/03/17 01:06:37;;;;;;;;;;;;;;;7.48;71.96;102266.84;5075899;28;19920;-68
2021/03/17 01:09:04;;;;;;;;;;;;;;;7.44;72.41;102273.13;5075687;28;19920;-67
2021/03/17 01:11:31;;;;;;;;;;;;;;;7.62;71.66;102253.59;5075550;28;19925;-64
2021/03/17 01:13:58;;;;;;;;;;;;;;;7.48;72.67;102260.56;5075939;28;19920;-66
2021/03/17 01:16:25;;;;;;;;;;;;;;;7.41;72.65;102265.41;5075860;28;19927;-69
2021/03/17 01:18:56;;;;;;;;;;;;;;;7.31;73.79;102263.34;5075006;28;19928;-65
2021/03/17 01:21:24;;;;;;;;;;;;;;;7.34;73.81;102273.00;5075458;28;19925;-63
2021/03/17 01:23:51;;;;;;;;;;;;;;;7.30;74.14;102255.38;5075172;28;19924;-65
2021/03/17 01:26:17;;;;;;;;;;;;;;;7.46;73.80;102263.53;5075433;28;20259;-64
2021/03/17 01:28:44;;;;;;;;;;;;;;;7.31;73.52;102281.69;5075443;28;19920;-68
2021/03/17 01:31:13;;;;;;;;;;;;;;;7.18;73.77;102265.66;5075645;28;19920;-65
2021/03/17 01:33:40;;;;;;;;;;;;;;;7.12;73.98;102269.38;5075933;28;19924;-64
2021/03/17 01:36:07;;;;;;;;;;;;;;;7.20;73.91;102263.47;5075585;28;19943;-64
2021/03/17 01:38:34;;;;;;;;;;;;;;;7.25;73.64;102271.78;5075620;28;19929;-61
2021/03/17 01:41:01;;;;;;;;;;;;;;;7.21;73.36;102265.13;5074888;28;19932;-70
2021/03/17 01:43:28;;;;;;;;;;;;;;;7.12;73.63;102256.53;5075107;28;19920;-62
2021/03/17 01:45:54;;;;;;;;;;;;;;;7.13;73.54;102265.56;5089761;28;19921;-68
2021/03/17 01:48:22;;;;;;;;;;;;;;;7.14;72.95;102253.53;5075042;28;20267;-68
2021/03/17 01:50:50;;;;;;;;;;;;;;;7.17;73.17;102250.25;5075641;28;19920;-64
2021/03/17 01:53:18;;;;;;;;;;;;;;;7.21;72.82;102240.47;5090829;28;19928;-65
2021/03/17 01:55:45;;;;;;;;;;;;;;;7.12;72.91;102247.47;5056780;28;19927;-63
2021/03/17 01:58:12;;;;;;;;;;;;;;;7.29;72.41;102240.00;5075451;28;20432;-63
2021/03/17 02:00:39;;;;;;;;;;;;;;;7.08;72.99;102244.41;5087960;28;20294;-66
2021/03/17 02:03:07;;;;;;;;;;;;;;;6.92;72.87;102244.44;5060467;28;19920;-68
2021/03/17 02:05:37;;;;;;;;;;;;;;;7.04;73.01;102240.53;5095028;28;19927;-64
2021/03/17 02:08:12;;;;;;;;;;;;;;;7.11;72.22;102251.28;5077227;28;20363;-63
2021/03/17 02:10:39;;;;;;;;;;;;;;;7.20;72.05;102238.81;5077470;28;20366;-64
2021/03/17 02:13:15;;;;;;;;;;;;;;;7.12;71.81;102247.47;5093646;28;19920;-62
2021/03/17 02:16:02;;;;;;;;;;;;;;;7.07;72.31;102245.50;5095255;28;19920;-65
2021/03/17 02:18:36;;;;;;;;;;;;;;;7.22;71.94;102247.63;5085171;28;19920;-63
2021/03/17 02:21:08;;;;;;;;;;;;;;;7.11;71.40;102248.56;5095106;28;20393;-65
2021/03/17 02:23:44;;;;;;;;;;;;;;;7.08;71.48;102232.63;5076626;28;19919;-62
2021/03/17 02:26:13;;;;;;;;;;;;;;;7.18;70.90;102247.31;5094812;28;19924;-61
2021/03/17 02:28:52;;;;;;;;;;;;;;;7.17;71.37;102242.03;5094807;28;19924;-63
2021/03/17 02:31:22;;;;;;;;;;;;;;;7.35;70.61;102249.97;5093388;28;19927;-61
2021/03/17 02:33:55;;;;;;;;;;;;;;;7.23;70.37;102244.63;5094111;28;19920;-60
2021/03/17 02:36:41;;;;;;;;;;;;;;;7.27;70.37;102243.00;5094593;28;19920;-64
2021/03/17 02:39:28;;;;;;;;;;;;;;;7.27;70.59;102247.69;5093131;28;19920;-62
2021/03/17 02:41:55;;;;;;;;;;;;;;;7.45;70.09;102250.94;5094218;28;19920;-64
2021/03/17 02:44:22;;;;;;;;;;;;;;;7.41;69.51;102257.19;5094403;28;19927;-63
2021/03/17 02:46:49;;;;;;;;;;;;;;;7.35;70.10;102248.06;5076693;28;19927;-63
2021/03/17 02:49:17;;;;;;;;;;;;;;;7.32;70.36;102273.22;5094745;28;20282;-62
2021/03/17 02:51:49;;;;;;;;;;;;;;;7.43;70.14;102261.31;5075955;28;19920;-63
2021/03/17 02:54:17;;;;;;;;;;;;;;;7.47;69.57;102267.97;5076125;28;20358;-64
2021/03/17 02:56:49;;;;;;;;;;;;;;;7.41;70.10;102255.25;5094489;28;19920;-62
2021/03/17 02:59:16;;;;;;;;;;;;;;;7.44;69.85;102249.28;5093289;28;20009;-61
2021/03/17 03:01:43;;;;;;;;;;;;;;;7.52;70.18;102261.69;5076119;28;19927;-62
2021/03/17 03:04:10;;;;;;;;;;;;;;;7.34;70.55;102267.50;5058696;28;20290;-61
2021/03/17 03:06:39;;;;;;;;;;;;;;;7.34;70.86;102259.28;5075241;28;19920;-61
2021/03/17 03:09:06;;;;;;;;;;;;;;;7.32;70.96;102261.44;5076239;28;19920;-62
2021/03/17 03:11:33;;;;;;;;;;;;;;;7.30;71.38;102263.63;5059652;28;20374;-63
2021/03/17 03:14:00;;;;;;;;;;;;;;;7.38;71.76;102261.25;5076041;28;19943;-57
2021/03/17 03:16:27;;;;;;;;;;;;;;;7.43;71.21;102260.47;5093288;28;20400;-64
2021/03/17 03:18:54;;;;;;;;;;;;;;;7.29;72.01;102257.28;5075736;28;19931;-62
2021/03/17 03:21:21;;;;;;;;;;;;;;;7.44;71.42;102271.22;5094110;28;20272;-65
2021/03/17 03:23:48;;;;;;;;;;;;;;;7.33;71.56;102260.34;5093560;28;19920;-66
2021/03/17 03:26:18;;;;;;;;;;;;;;;7.45;71.47;102285.72;5059245;28;19927;-63
2021/03/17 03:28:48;;;;;;;;;;;;;;;7.49;71.76;102268.53;5093053;28;19920;-65
2021/03/17 03:31:15;;;;;;;;;;;;;;;7.30;72.37;102252.66;5075892;28;19920;-65
2021/03/17 03:33:42;;;;;;;;;;;;;;;7.34;72.30;102259.28;5093412;28;19927;-65
2021/03/17 03:36:09;;;;;;;;;;;;;;;7.18;72.88;102258.25;5092931;28;19927;-60
2021/03/17 03:38:37;;;;;;;;;;;;;;;7.35;72.57;102256.28;5093429;28;19920;-67
2021/03/17 03:41:04;;;;;;;;;;;;;;;7.30;72.43;102250.75;5075072;28;20266;-68
2021/03/17 03:43:30;;;;;;;;;;;;;;;7.29;72.70;102249.06;5093571;28;19934;-63
2021/03/17 03:45:57;;;;;;;;;;;;;;;7.48;72.18;102246.84;5092909;28;20294;-63
2021/03/17 03:48:25;;;;;;;;;;;;;;;7.50;72.02;102256.47;5093970;28;20235;-64
2021/03/17 03:50:52;;;;;;;;;;;;;;;7.23;73.13;102254.75;5075900;28;20412;-62
2021/03/17 03:53:18;;;;;;;;;;;;;;;7.30;73.61;102255.38;5093299;28;19943;-64
2021/03/17 03:56:04;;;;;;;;;;;;;;;7.29;74.34;102257.28;5093667;28;19927;-64
2021/03/17 03:58:36;;;;;;;;;;;;;;;7.20;74.91;102255.25;5093415;28;19920;-64
2021/03/17 04:05:35;;;;;;;;;;;;;;;7.24;74.66;102267.34;5072729;28;19923;-63
2021/03/17 04:08:06;;;;;;;;;;;;;;;7.35;74.37;102258.19;5054668;28;19927;-61
2021/03/17 04:10:33;;;;;;;;;;;;;;;7.55;72.95;102263.94;5072905;28;19996;-61
2021/03/17 04:13:01;;;;;;;;;;;;;;;7.48;73.25;102269.59;5088472;28;19927;-63
2021/03/17 04:19:47;;;;;;;;;;;;;;;7.28;73.75;102282.22;5073014;28;19939;-65
2021/03/17 04:22:13;;;;;;;;;;;;;;;7.30;74.07;102289.13;5087940;28;19924;-66
2021/03/17 04:24:40;;;;;;;;;;;;;;;7.34;74.43;102292.19;5071448;28;19920;-66
2021/03/17 04:27:08;;;;;;;;;;;;;;;7.44;74.00;102295.88;5037486;28;19927;-71
2021/03/17 04:29:35;;;;;;;;;;;;;;;7.37;74.81;102291.66;5072661;28;19927;-62
2021/03/17 04:32:02;;;;;;;;;;;;;;;7.15;75.42;102290.81;5088402;28;19920;-63
2021/03/17 04:34:29;;;;;;;;;;;;;;;7.26;75.63;102298.91;5088537;28;20390;-69
2021/03/17 04:36:56;;;;;;;;;;;;;;;7.29;76.38;102289.34;5073956;28;19920;-63
2021/03/17 04:39:23;;;;;;;;;;;;;;;7.17;76.17;102288.63;5076698;28;19924;-63
2021/03/17 04:41:50;;;;;;;;;;;;;;;7.04;76.80;102297.22;5092183;28;19920;-64
2021/03/17 04:44:17;;;;;;;;;;;;;;;7.12;76.08;102272.97;5075010;28;19947;-65
2021/03/17 04:46:44;;;;;;;;;;;;;;;7.17;75.86;102264.81;5091775;28;19921;-63
2021/03/17 04:49:11;;;;;;;;;;;;;;;7.15;74.72;102266.97;5092275;28;19928;-65
2021/03/17 04:51:41;;;;;;;;;;;;;;;7.13;75.35;102279.28;5076384;28;20389;-67
2021/03/17 04:54:08;;;;;;;;;;;;;;;7.20;74.84;102277.19;5076880;28;19924;-64
2021/03/17 04:56:35;;;;;;;;;;;;;;;7.34;74.55;102268.31;5091787;28;19928;-65
2021/03/17 04:59:02;;;;;;;;;;;;;;;7.48;73.60;102285.25;5075701;28;19920;-63
2021/03/17 05:05:46;;;;;;;;;;;;;;;7.46;72.75;102292.88;5095556;28;20290;-62
2021/03/17 05:08:13;;;;;;;;;;;;;;;7.47;72.83;102294.53;5078271;28;19923;-65
2021/03/17 05:10:44;;;;;;;;;;;;;;;7.26;74.15;102301.66;5078969;28;19919;-67
2021/03/17 05:13:12;;;;;;;;;;;;;;;7.30;75.25;102332.13;5077856;28;19927;-65
2021/03/17 05:19:58;;;;;;;;;;;;;;;6.91;78.60;102308.50;5095214;28;19923;-67
2021/03/17 05:22:25;;;;;;;;;;;;;;;6.94;79.36;102313.50;5095730;28;20259;-62
2021/03/17 05:24:51;;;;;;;;;;;;;;;7.08;80.28;102317.56;5078307;28;19943;-61
2021/03/17 05:27:21;;;;;;;;;;;;;;;7.08;79.86;102334.00;5096089;28;19935;-63
2021/03/17 05:29:48;;;;;;;;;;;;;;;7.02;80.76;102330.34;5077763;28;20375;-65
2021/03/17 05:32:15;;;;;;;;;;;;;;;7.08;80.71;102342.22;5078712;28;19927;-65
2021/03/17 05:34:54;;;;;;;;;;;;;;;6.79;82.64;102346.94;5095391;28;20354;-63
2021/03/17 05:37:21;;;;;;;;;;;;;;;6.94;83.06;102341.72;5095192;28;19927;-64
2021/03/17 05:39:48;;;;;;;;;;;;;;;7.05;83.35;102356.41;5095317;28;19920;-62
2021/03/17 05:42:15;;;;;;;;;;;;;;;7.00;84.35;102359.06;5096019;28;20278;-63
2021/03/17 05:44:42;;;;;;;;;;;;;;;6.94;85.34;102360.06;5094926;28;19927;-61
2021/03/17 05:51:27;;;;;;;;;;;;;;;6.60;87.56;102354.59;5095578;28;19923;-65
2021/03/17 05:53:54;;;;;;;;;;;;;;;6.60;87.86;102357.31;5096262;28;19924;-62
2021/03/17 05:56:20;;;;;;;;;;;;;;;6.71;87.38;102370.09;5077824;28;20371;-62
2021/03/17 05:58:47;;;;;;;;;;;;;;;6.71;86.98;102377.50;5095378;28;19920;-63
2021/03/17 06:01:17;;;;;;;;;;;;;;;6.61;88.55;102378.13;5094638;28;19920;-68
2021/03/17 06:03:52;;;;;;;;;;;;;;;6.47;89.63;102386.88;5095625;28;19935;-62
2021/03/17 06:06:18;;;;;;;;;;;;;;;6.26;89.35;102402.09;5077814;28;19927;-63
2021/03/17 06:08:46;;;;;;;;;;;;;;;6.36;88.92;102401.47;5094181;28;19927;-64
2021/03/17 06:11:16;;;;;;;;;;;;;;;6.49;88.22;102425.78;5077262;28;19920;-69
2021/03/17 06:13:47;;;;;;;;;;;;;;;6.43;86.46;102419.38;5093672;28;19927;-61
2021/03/17 06:16:13;;;;;;;;;;;;;;;6.41;86.55;102420.72;5095471;28;20396;-62
2021/03/17 06:18:58;;;;;;;;;;;;;;;6.37;86.32;102416.81;5077558;28;19931;-65
2021/03/17 06:21:25;;;;;;;;;;;;;;;6.46;86.25;102413.44;5094724;28;19927;-64
2021/03/17 06:23:52;;;;;;;;;;;;;;;6.58;85.89;102438.03;5094898;28;19920;-63
2021/03/17 06:26:19;;;;;;;;;;;;;;;6.33;87.16;102435.63;5094907;28;19920;-63
2021/03/17 06:28:46;;;;;;;;;;;;;;;6.32;86.78;102433.97;5077358;28;19927;-63
2021/03/17 06:31:20;;;;;;;;;;;;;;;6.44;86.51;102421.06;5094460;28;19927;-64
2021/03/17 06:33:50;;;;;;;;;;;;;;;6.51;85.95;102445.56;5076486;28;19991;-63
2021/03/17 06:36:18;;;;;;;;;;;;;;;6.53;86.37;102430.56;5093906;28;19920;-63
2021/03/17 06:38:46;;;;;;;;;;;;;;;6.60;86.46;102430.41;5094425;28;19927;-68
2021/03/17 06:41:13;;;;;;;;;;;;;;;6.35;87.19;102438.09;5076329;28;19947;-58
2021/03/17 06:43:44;;;;;;;;;;;;;;;6.36;87.19;102434.31;5094080;28;20274;-67
2021/03/17 06:46:13;;;;;;;;;;;;;;;6.56;86.90;102438.28;5076098;28;19927;-69
2021/03/17 06:48:55;;;;;;;;;;;;;;;6.53;86.30;102441.50;5075944;28;19920;-63
2021/03/17 06:51:22;;;;;;;;;;;;;;;6.72;86.16;102434.75;5094296;28;19927;-63
2021/03/17 06:53:52;;;;;;;;;;;;;;;6.67;86.38;102426.44;5093909;28;20397;-66
2021/03/17 06:56:22;;;;;;;;;;;;;;;6.52;87.14;102434.34;5093338;28;20377;-64
2021/03/17 06:58:50;;;;;;;;;;;;;;;6.63;87.20;102428.00;5110238;28;19920;-65
2021/03/17 07:01:33;;;;;;;;;;;;;;;6.70;87.50;102430.56;5094229;28;19920;-66
2021/03/17 07:04:11;;;;;;;;;;;;;;;6.75;87.94;102427.94;5093632;28;19920;-62
2021/03/17 07:06:39;;;;;;;;;;;;;;;6.98;87.08;102432.44;5093392;28;19927;-63
2021/03/17 07:09:15;;;;;;;;;;;;;;;6.85;87.51;102434.41;5093126;28;19920;-65
2021/03/17 07:11:42;;;;;;;;;;;;;;;6.77;87.91;102428.53;5094051;28;19927;-63
2021/03/17 07:14:09;;;;;;;;;;;;;;;6.87;88.01;102441.59;5075534;28;20308;-62
2021/03/17 07:16:36;;;;;;;;;;;;;;;6.93;87.64;102440.56;5093471;28;19920;-64
2021/03/17 07:19:28;;;;;;;;;;;;;;;7.04;86.55;102426.81;5093813;28;19927;-61
2021/03/17 07:22:10;;;;;;;;;;;;;;;7.03;85.83;102424.31;5093879;28;19920;-63
2021/03/17 07:24:39;;;;;;;;;;;;;;;6.78;86.28;102427.47;5074522;28;20290;-61
2021/03/17 07:27:21;;;;;;;;;;;;;;;6.67;85.58;102447.50;5093780;28;20297;-62
2021/03/17 07:29:57;;;;;;;;;;;;;;;6.70;86.03;102436.06;5093634;28;20397;-63
2021/03/17 07:32:54;;;;;;;;;;;;;;;6.99;85.73;102439.59;5093394;28;20286;-64
2021/03/17 07:35:31;;;;;;;;;;;;;;;6.88;84.83;102444.06;5093727;28;20358;-65
2021/03/17 07:38:11;;;;;;;;;;;;;;;7.06;85.19;102445.75;5075296;28;19927;-64
2021/03/17 07:40:41;;;;;;;;;;;;;;;6.83;84.73;102444.78;5075538;28;19920;-67
2021/03/17 07:43:08;;;;;;;;;;;;;;;6.70;84.80;102447.84;5092161;28;19927;-61
2021/03/17 07:45:35;;;;;;;;;;;;;;;6.82;84.84;102445.03;5093240;28;19920;-61
2021/03/17 07:48:04;;;;;;;;;;;;;;;7.06;83.98;102456.72;5092735;28;19927;-66
2021/03/17 07:50:43;;;;;;;;;;;;;;;6.94;84.71;102456.75;5074383;28;19920;-65
2021/03/17 07:53:21;;;;;;;;;;;;;;;7.08;83.89;102471.81;5092677;28;19927;-60
2021/03/17 07:55:49;;;;;;;;;;;;;;;7.01;83.53;102467.59;5075456;28;19927;-65
2021/03/17 07:58:16;;;;;;;;;;;;;;;7.12;82.94;102463.91;5058615;28;20401;-60
2021/03/17 08:00:43;;;;;;;;;;;;;;;6.94;82.94;102456.75;5093383;28;19924;-64
2021/03/17 08:03:12;;;;;;;;;;;;;;;7.10;82.95;102463.34;5108231;28;19920;-63
2021/03/17 08:05:39;;;;;;;;;;;;;;;7.12;81.28;102470.25;5074682;28;19920;-64
2021/03/17 08:08:08;;;;;;;;;;;;;;;7.17;80.65;102453.03;5093130;28;19927;-68
2021/03/17 08:10:36;;;;;;;;;;;;;;;7.38;79.59;102446.81;5058351;28;19920;-66
2021/03/17 08:13:03;;;;;;;;;;;;;;;7.46;78.80;102454.63;5078406;28;19920;-64
2021/03/17 08:15:30;;;;;;;;;;;;;;;7.21;78.99;102449.56;5079088;28;19920;-61
2021/03/17 08:17:57;;;;;;;;;;;;;;;7.44;77.02;102445.81;5097165;28;19920;-64
2021/03/17 08:20:27;;;;;;;;;;;;;;;7.32;76.08;102445.91;5096663;28;19924;-60
2021/03/17 08:22:55;;;;;;;;;;;;;;;7.57;76.08;102431.75;5096616;28;20305;-62
2021/03/17 08:25:42;;;;;;;;;;;;;;;7.66;74.23;102417.38;5096806;28;20365;-63
2021/03/17 08:28:19;;;;;;;;;;;;;;;7.75;73.94;102417.75;5077889;28;19992;-64
2021/03/17 08:30:47;;;;;;;;;;;;;;;7.75;73.00;102415.88;5096755;28;19920;-61
2021/03/17 08:33:35;;;;;;;;;;;;;;;7.67;73.22;102410.00;5078605;28;20370;-67
2021/03/17 08:36:06;;;;;;;;;;;;;;;7.86;71.97;102419.56;5096785;28;20362;-66
2021/03/17 08:38:46;;;;;;;;;;;;;;;7.86;71.03;102420.38;5096771;28;19920;-58
2021/03/17 08:41:13;;;;;;;;;;;;;;;7.92;71.44;102427.63;5078397;28;19920;-64
2021/03/17 08:43:44;;;;;;;;;;;;;;;7.84;72.38;102424.47;5096587;28;19924;-67
2021/03/17 08:46:18;;;;;;;;;;;;;;;7.72;71.10;102427.31;5096928;28;19946;-63
2021/03/17 08:49:04;;;;;;;;;;;;;;;7.89;71.32;102433.63;5080931;28;19920;-66
2021/03/17 08:51:46;;;;;;;;;;;;;;;8.15;70.70;102428.44;5079289;28;19943;-62
2021/03/17 08:54:32;;;;;;;;;;;;;;;8.11;69.89;102444.59;5096318;28;19924;-68
2021/03/17 08:56:58;;;;;;;;;;;;;;;8.05;70.09;102445.63;5096090;28;19920;-68
2021/03/17 08:59:40;;;;;;;;;;;;;;;8.16;70.32;102450.13;5078068;28;19931;-65
2021/03/17 09:06:29;;;;;;;;;;;;;;;7.73;71.21;102455.59;5077051;28;19935;-68
2021/03/17 09:09:00;;;;;;;;;;;;;;;7.47;72.98;102448.06;5077985;28;20290;-63
2021/03/17 09:11:29;;;;;;;;;;;;;;;7.60;72.63;102464.19;5076282;28;20374;-64
2021/03/17 09:13:58;;;;;;;;;;;;;;;7.78;72.16;102459.22;5077652;28;20366;-67
2021/03/17 09:16:31;;;;;;;;;;;;;;;7.51;71.66;102463.78;5041804;28;19927;-67
2021/03/17 09:19:04;;;;;;;;;;;;;;;7.61;71.98;102479.53;5075451;28;20282;-65
2021/03/17 09:21:38;;;;;;;;;;;;;;;7.45;72.03;102483.13;5075286;28;19920;-67
2021/03/17 09:24:25;;;;;;;;;;;;;;;7.46;70.82;102471.09;5074673;28;19924;-66
2021/03/17 09:27:05;;;;;;;;;;;;;;;7.52;70.50;102483.78;5057545;28;19920;-61
2021/03/17 09:29:32;;;;;;;;;;;;;;;7.57;71.10;102486.59;5075664;28;19928;-65
2021/03/17 09:32:00;;;;;;;;;;;;;;;7.42;70.42;102480.88;5074927;28;19921;-66
2021/03/17 09:34:27;;;;;;;;;;;;;;;7.44;70.39;102498.75;5075340;28;19928;-67
2021/03/17 09:37:03;;;;;;;;;;;;;;;7.48;70.25;102477.16;5075299;28;19920;-66
2021/03/17 09:39:31;;;;;;;;;;;;;;;7.86;69.30;102475.25;5057814;28;19924;-65
2021/03/17 09:41:58;;;;;;;;;;;;;;;8.07;68.49;102492.84;5074857;28;19927;-64
2021/03/17 09:44:24;;;;;;;;;;;;;;;8.15;67.84;102494.31;5074474;28;19927;-66
2021/03/17 09:46:55;;;;;;;;;;;;;;;7.77;67.17;102485.00;5075252;28;19928;-65
2021/03/17 09:49:23;;;;;;;;;;;;;;;7.99;67.29;102491.38;5058139;28;19924;-69
2021/03/17 09:51:51;;;;;;;;;;;;;;;7.83;66.80;102491.38;5074805;28;19943;-68
2021/03/17 09:54:19;;;;;;;;;;;;;;;7.92;66.54;102484.38;5040357;28;19920;-71
2021/03/17 09:56:52;;;;;;;;;;;;;;;7.98;65.66;102472.41;5074896;28;19921;-69
2021/03/17 09:59:29;;;;;;;;;;;;;;;8.31;65.49;102477.81;5057382;28;19943;-70
2021/03/17 10:01:57;;;;;;;;;;;;;;;8.34;64.41;102495.69;5056611;28;20378;-72
2021/03/17 10:04:34;;;;;;;;;;;;;;;8.25;64.21;102486.22;5060862;28;19927;-72
2021/03/17 10:07:02;;;;;;;;;;;;;;;8.08;64.70;102508.22;5077464;28;20375;-69
2021/03/17 10:09:30;;;;;;;;;;;;;;;8.12;63.52;102476.44;5076375;28;20369;-70
2021/03/17 10:12:06;;;;;;;;;;;;;;;8.19;63.31;102487.22;5094764;28;19943;-77
2021/03/17 10:14:34;;;;;;;;;;;;;;;8.20;63.85;102481.47;5094791;28;19920;-72
2021/03/17 10:17:06;;;;;;;;;;;;;;;8.18;63.31;102486.41;5093003;28;19927;-70
2021/03/17 10:19:33;;;;;;;;;;;;;;;8.12;63.18;102484.69;5076794;28;20377;-65
2021/03/17 10:22:00;;;;;;;;;;;;;;;8.26;62.98;102471.44;5094179;28;19920;-73
2021/03/17 10:24:41;;;;;;;;;;;;;;;8.53;62.42;102464.91;5076785;28;19920;-66
2021/03/17 10:27:10;;;;;;;;;;;;;;;8.54;61.59;102455.56;5075982;28;19920;-64
2021/03/17 10:29:37;;;;;;;;;;;;;;;8.42;62.03;102465.88;5094233;28;20273;-62
2021/03/17 10:32:05;;;;;;;;;;;;;;;8.37;62.35;102462.25;5076784;28;19920;-64
2021/03/17 10:34:33;;;;;;;;;;;;;;;8.32;62.24;102443.78;5076289;28;19920;-64
2021/03/17 10:37:00;;;;;;;;;;;;;;;8.70;61.86;102438.16;5075584;28;19927;-65
2021/03/17 10:39:31;;;;;;;;;;;;;;;8.53;61.92;102453.91;5093507;28;19942;-63
2021/03/17 10:41:58;;;;;;;;;;;;;;;8.92;61.22;102436.22;5076117;28;19927;-65
2021/03/17 10:44:26;;;;;;;;;;;;;;;8.86;60.89;102433.66;5059616;28;19920;-68
2021/03/17 10:46:56;;;;;;;;;;;;;;;8.71;60.78;102450.84;5094491;28;19927;-69
2021/03/17 10:49:24;;;;;;;;;;;;;;;8.36;61.76;102441.34;5059427;28;19927;-69
2021/03/17 10:52:06;;;;;;;;;;;;;;;8.38;61.55;102434.53;5094836;28;19931;-65
2021/03/17 10:54:40;;;;;;;;;;;;;;;8.41;61.45;102435.91;5076257;28;19920;-69
2021/03/17 10:57:08;;;;;;;;;;;;;;;8.42;60.68;102445.84;5093861;28;19920;-66
2021/03/17 10:59:36;;;;;;;;;;;;;;;8.58;60.83;102439.41;5076094;28;19931;-66
2021/03/17 11:02:18;;;;;;;;;;;;;;;8.73;60.30;102423.94;5076493;28;20294;-71
2021/03/17 11:05:04;;;;;;;;;;;;;;;8.95;59.80;102421.09;5093943;28;19931;-71
2021/03/17 11:07:49;;;;;;;;;;;;;;;8.98;60.00;102434.31;5094056;28;20270;-71
2021/03/17 11:10:31;;;;;;;;;;;;;;;8.79;58.87;102414.63;5093492;28;20370;-66
2021/03/17 11:12:59;;;;;;;;;;;;;;;9.01;59.20;102422.81;5092720;28;20270;-64
2021/03/17 11:15:27;;;;;;;;;;;;;;;9.17;59.03;102430.06;5094867;28;19924;-64
2021/03/17 11:17:54;;;;;;;;;;;;;;;8.75;59.44;102423.66;5076408;28;19920;-66
2021/03/17 11:20:23;;;;;;;;;;;;;;;8.68;59.82;102407.38;5092954;28;19939;-67
2021/03/17 11:22:53;;;;;;;;;;;;;;;8.73;60.25;102420.34;5096749;28;20297;-69
2021/03/17 11:25:26;;;;;;;;;;;;;;;8.88;59.25;102413.06;5059697;28;19956;-68
2021/03/17 11:27:53;;;;;;;;;;;;;;;8.71;59.77;102420.63;5093684;28;19924;-67
2021/03/17 11:30:20;;;;;;;;;;;;;;;8.74;59.80;102433.81;5076070;28;19920;-64
2021/03/17 11:32:47;;;;;;;;;;;;;;;8.93;59.20;102431.53;5059349;28;19927;-68
2021/03/17 11:35:14;;;;;;;;;;;;;;;9.05;58.67;102429.44;5075422;28;19927;-67
2021/03/17 11:37:41;;;;;;;;;;;;;;;9.04;58.52;102401.13;5094110;28;19924;-65
2021/03/17 11:40:08;;;;;;;;;;;;;;;9.07;57.99;102402.50;5093242;28;19920;-64
2021/03/17 11:42:35;;;;;;;;;;;;;;;9.27;57.16;102388.94;5088497;28;19924;-66
2021/03/17 11:45:14;;;;;;;;;;;;;;;9.35;56.33;102390.34;5076151;28;19920;-70
2021/03/17 11:47:40;;;;;;;;;;;;;;;9.43;56.81;102374.19;5075077;28;19926;-71
2021/03/17 11:50:08;;;;;;;;;;;;;;;9.36;55.87;102394.78;5093495;28;20289;-68
2021/03/17 11:52:49;;;;;;;;;;;;;;;9.36;56.13;102392.03;5074674;28;20286;-73
2021/03/17 11:55:22;;;;;;;;;;;;;;;9.66;55.31;102387.53;5092491;28;20271;-71
2021/03/17 11:57:55;;;;;;;;;;;;;;;9.64;55.32;102392.47;5076250;28;20380;-71
2021/03/17 12:00:22;;;;;;;;;;;;;;;9.70;54.36;102398.81;5074520;28;19920;-73
2021/03/17 12:02:55;;;;;;;;;;;;;;;9.49;54.44;102399.78;5093358;28;20358;-73
2021/03/17 12:05:22;;;;;;;;;;;;;;;9.54;55.03;102395.16;5074579;28;19995;-70
2021/03/17 12:07:50;;;;;;;;;;;;;;;9.34;56.10;102391.44;5092877;28;19920;-70
2021/03/17 12:10:19;;;;;;;;;;;;;;;9.25;55.19;102398.53;5093429;28;19927;-72
2021/03/17 12:12:46;;;;;;;;;;;;;;;9.39;55.18;102414.31;5093563;28;19920;-81
2021/03/17 12:15:16;;;;;;;;;;;;;;;9.26;55.54;102402.97;5092727;28;19927;-77
2021/03/17 12:17:43;;;;;;;;;;;;;;;9.49;53.67;102399.78;5092657;28;19920;-69
2021/03/17 12:20:11;;;;;;;;;;;;;;;9.58;53.34;102395.47;5075083;28;19927;-73
2021/03/17 12:22:37;;;;;;;;;;;;;;;9.71;53.75;102419.75;5093050;28;19920;-66
2021/03/17 12:25:05;;;;;;;;;;;;;;;9.42;54.55;102397.28;5093584;28;19920;-68
2021/03/17 12:27:32;;;;;;;;;;;;;;;9.56;53.99;102403.97;5093036;28;20259;-68
2021/03/17 12:29:59;;;;;;;;;;;;;;;9.57;54.41;102454.34;5074825;28;19920;-70
2021/03/17 12:32:26;;;;;;;;;;;;;;;9.42;52.91;102418.44;5092953;28;20397;-65
2021/03/17 12:34:56;;;;;;;;;;;;;;;9.77;52.36;102404.91;5093083;28;19931;-66
2021/03/17 12:37:23;;;;;;;;;;;;;;;9.53;51.77;102406.44;5093245;28;19920;-66
2021/03/17 12:39:54;;;;;;;;;;;;;;;9.66;52.12;102405.97;5091356;28;19939;-69
2021/03/17 12:42:27;;;;;;;;;;;;;;;9.67;52.74;102411.22;5092867;28;20297;-64
2021/03/17 12:44:58;;;;;;;;;;;;;;;9.47;54.78;102411.06;5090196;28;19927;-68
2021/03/17 12:47:25;;;;;;;;;;;;;;;9.57;55.92;102410.31;5059831;28;19927;-73
2021/03/17 12:49:53;;;;;;;;;;;;;;;9.54;57.23;102410.81;5057253;28;19920;-66
2021/03/17 12:56:51;;;;;;;;;;;;;;;9.07;59.75;102430.00;5092939;28;19923;-76
2021/03/17 12:59:18;;;;;;;;;;;;;;;9.16;59.00;102413.84;5077082;28;19920;-74
2021/03/17 13:01:45;;;;;;;;;;;;;;;9.27;nan;102415.59;5095698;28;19927;-75
2021/03/17 13:04:12;;;;;;;;;;;;;;;9.29;56.66;102411.50;5095432;28;20366;-74
2021/03/17 13:06:40;;;;;;;;;;;;;;;9.41;55.68;102394.81;5096032;28;19920;-72
2021/03/17 13:09:07;;;;;;;;;;;;;;;9.47;55.56;102415.72;5095544;28;19920;-70
2021/03/17 13:11:37;;;;;;;;;;;;;;;9.29;55.94;102381.25;5096034;28;20358;-69
2021/03/17 13:14:07;;;;;;;;;;;;;;;9.46;56.07;102383.84;5095698;28;19924;-69
2021/03/17 13:16:34;;;;;;;;;;;;;;;9.42;56.13;102401.94;5096550;28;20259;-71
2021/03/17 13:19:01;;;;;;;;;;;;;;;9.21;57.49;102369.91;5096451;28;19920;-71
2021/03/17 13:21:32;;;;;;;;;;;;;;;9.28;57.74;102382.34;5077928;28;19927;-64
2021/03/17 13:23:59;;;;;;;;;;;;;;;9.55;57.36;102383.09;5095738;28;19920;-68
2021/03/17 13:26:27;;;;;;;;;;;;;;;9.37;58.25;102388.16;5095987;28;20294;-70
2021/03/17 13:28:54;;;;;;;;;;;;;;;9.19;58.27;102375.66;5077681;28;19920;-68
2021/03/17 13:31:21;;;;;;;;;;;;;;;9.38;57.92;102362.34;5076362;28;19927;-66
2021/03/17 13:33:48;;;;;;;;;;;;;;;9.43;58.51;102359.63;5095442;28;19920;-64
2021/03/17 13:36:15;;;;;;;;;;;;;;;9.24;58.47;102345.44;5060314;28;20307;-63
2021/03/17 13:38:42;;;;;;;;;;;;;;;9.32;59.24;102339.47;5094897;28;20358;-72
2021/03/17 13:41:09;;;;;;;;;;;;;;;9.09;60.08;102350.84;5094874;28;19920;-67
2021/03/17 13:43:36;;;;;;;;;;;;;;;8.95;59.81;102339.50;5094283;28;20402;-68
2021/03/17 13:46:04;;;;;;;;;;;;;;;9.00;60.03;102333.19;5094937;28;19920;-66